Auburn, Washington
Current Conditions -  °F | °C
As of 5:53 AM on Friday 24 Oct 2014 (Local Time) from KSEA Reporting Station
Scattered Clouds Scattered Clouds  
Wind Chill: 45°   Ceiling: Unl
Heat Index: 49°   Visibility: 10mi
Dew Point: 44°   Wind: 8mph
Humidity: 83%   Direction: 100°E
Pressure: 30.03"   Gusts: NA
Location:  47.31°N, 122.23°W
Report Text: KSEA 241253Z 10007KT 10SM FEW037 SCT230 09/07 A3003 RMK AO2 SLP176 T00940067
Loading
Personal Weather Stations






























Interactive Weather Map New forecast layout! Learn more

10-Day Weather Forecast

Advertisements
Track Severe Weather on mobile